Time;durP1;ratioP1;P1;durP2;ratioP2;P2;SDS_P1;SDS_P2;PMS_P1;PMS_P2;Temp;Humidity;BMP_temperature;BMP_pressure;BME280_temperature;BME280_humidity;BME280_pressure;Samples;Min_cycle;Max_cycle;Signal;HPM_P1;HPM_P2
2021/12/01 03:52:36;;;;;;;7.53;4.50;;;;;;;9.54;100.00;99268.03;2607445;54;20169;-73
2021/12/01 07:18:39;;;;;;;10.38;6.55;;;;;;;8.68;100.00;98831.09;2604717;36;20428;-73
2021/12/01 07:26:33;;;;;;;8.73;7.00;;;;;;;8.78;100.00;98836.25;2610955;36;20037;-72
2021/12/01 07:29:07;;;;;;;8.75;5.88;;;;;;;8.88;100.00;98828.00;2610483;36;20039;-72
2021/12/01 07:32:06;;;;;;;9.77;6.90;;;;;;;8.83;100.00;98836.56;2609951;36;20042;-71
2021/12/01 07:35:01;;;;;;;7.10;4.97;;;;;;;8.79;100.00;98829.88;2611348;36;20027;-71
2021/12/01 07:40:15;;;;;;;9.70;5.63;;;;;;;8.86;100.00;98820.13;2610356;31;20042;-71
2021/12/01 07:42:43;;;;;;;10.70;6.25;;;;;;;8.93;100.00;98809.53;2610704;36;20031;-72
2021/12/01 07:47:53;;;;;;;7.97;6.15;;;;;;;8.99;100.00;98802.63;2609959;36;20470;-71
2021/12/01 07:50:21;;;;;;;8.00;5.70;;;;;;;9.01;100.00;98805.94;2610710;31;20481;-71
2021/12/01 07:52:54;;;;;;;8.43;6.07;;;;;;;9.03;100.00;98772.56;2608996;31;20061;-71
2021/12/01 07:55:30;;;;;;;8.10;6.53;;;;;;;9.01;100.00;98771.91;2610271;36;20130;-70
2021/12/01 07:57:58;;;;;;;7.70;6.50;;;;;;;8.95;100.00;98764.56;2610154;36;20174;-71
2021/12/01 08:00:26;;;;;;;10.40;6.32;;;;;;;8.94;100.00;98741.44;2609489;36;20157;-70
2021/12/01 08:02:55;;;;;;;7.60;5.82;;;;;;;9.03;100.00;98756.47;2609897;36;20673;-72
2021/12/01 08:05:23;;;;;;;8.75;5.47;;;;;;;9.00;100.00;98762.19;2609397;36;20074;-73
2021/12/01 08:07:55;;;;;;;9.20;5.82;;;;;;;9.02;100.00;98756.66;2609274;36;20130;-72
2021/12/01 08:10:41;;;;;;;7.45;5.13;;;;;;;9.09;100.00;98761.13;2610881;36;20065;-72
2021/12/01 08:13:09;;;;;;;6.63;4.88;;;;;;;9.10;100.00;98756.59;2609944;31;20060;-72
2021/12/01 08:15:38;;;;;;;6.38;4.88;;;;;;;9.12;100.00;98751.88;2608275;36;20038;-72
2021/12/01 08:18:06;;;;;;;7.32;4.72;;;;;;;9.15;100.00;98762.25;2610470;36;20486;-72
2021/12/01 08:20:36;;;;;;;10.88;6.50;;;;;;;9.16;100.00;98782.72;2610459;36;20130;-72
2021/12/01 08:23:07;;;;;;;8.45;5.25;;;;;;;9.15;100.00;98769.47;2610785;36;20038;-71
2021/12/01 08:25:37;;;;;;;13.25;5.82;;;;;;;9.15;100.00;98794.47;2610811;31;20618;-71
2021/12/01 08:28:17;;;;;;;9.00;6.05;;;;;;;9.19;100.00;98819.94;2601160;31;20417;-73
2021/12/01 08:33:34;;;;;;;12.38;4.90;;;;;;;8.96;100.00;98816.38;2609281;36;20042;-73
2021/12/01 08:38:49;;;;;;;11.25;3.28;;;;;;;8.89;100.00;98813.56;2626454;36;20971;-73
2021/12/01 08:41:17;;;;;;;11.02;3.22;;;;;;;8.73;100.00;98804.59;2608988;36;20181;-72
2021/12/01 08:43:46;;;;;;;10.27;2.38;;;;;;;8.72;100.00;98802.09;2610564;36;20038;-72
2021/12/01 08:46:30;;;;;;;9.32;3.25;;;;;;;8.68;100.00;98816.84;2605913;36;20069;-72
2021/12/01 08:51:39;;;;;;;17.48;3.40;;;;;;;8.50;100.00;98814.41;2609333;36;20527;-73
2021/12/01 08:54:18;;;;;;;13.32;2.63;;;;;;;8.58;100.00;98815.22;2607374;36;20035;-72
2021/12/01 08:56:46;;;;;;;13.95;2.70;;;;;;;8.61;100.00;98823.91;2608441;36;20039;-72
2021/12/01 08:59:14;;;;;;;11.20;2.43;;;;;;;8.58;100.00;98812.53;2594148;36;20041;-72
2021/12/01 09:07:37;;;;;;;7.63;1.85;;;;;;;8.63;100.00;98841.53;2610610;36;20030;-72
2021/12/01 09:10:29;;;;;;;8.88;2.50;;;;;;;8.65;100.00;98804.63;2605969;36;20069;-73
2021/12/01 09:13:22;;;;;;;9.98;1.85;;;;;;;8.59;100.00;98824.09;2609237;36;20061;-72
2021/12/01 09:15:52;;;;;;;15.30;2.33;;;;;;;8.48;100.00;98819.09;2609191;36;20031;-72
2021/12/01 09:18:35;;;;;;;10.30;1.63;;;;;;;8.50;100.00;98844.75;2605167;36;20158;-73
2021/12/01 09:21:04;;;;;;;7.13;1.90;;;;;;;8.51;100.00;98842.88;2610286;36;20035;-72
2021/12/01 09:42:43;;;;;;;11.35;2.33;;;;;;;8.54;100.00;98855.97;2625142;36;20041;-73
2021/12/01 12:32:33;;;;;;;10.30;2.38;;;;;;;8.75;100.00;98818.66;2612201;36;19974;-75
2021/12/01 12:35:03;;;;;;;12.45;2.38;;;;;;;8.68;100.00;98816.84;2612660;31;20621;-71
2021/12/01 12:37:35;;;;;;;9.52;1.63;;;;;;;8.51;100.00;98811.56;2611544;36;20038;-76
2021/12/01 12:40:08;;;;;;;10.48;2.08;;;;;;;8.46;100.00;98821.94;2609408;36;20079;-71
2021/12/01 12:42:36;;;;;;;14.10;2.88;;;;;;;8.39;100.00;98832.50;2608273;36;21314;-73
2021/12/01 12:45:05;;;;;;;9.35;2.42;;;;;;;8.40;100.00;98831.47;2607958;36;20056;-72
2021/12/01 12:48:06;;;;;;;8.10;1.90;;;;;;;8.36;100.00;98835.53;2608329;36;20030;-72
2021/12/01 12:50:37;;;;;;;12.35;3.03;;;;;;;8.33;100.00;98835.88;2607732;36;20077;-74
2021/12/01 12:55:50;;;;;;;14.13;2.53;;;;;;;8.25;100.00;98838.56;2608041;36;20146;-72
2021/12/01 12:58:18;;;;;;;11.40;2.17;;;;;;;8.26;100.00;98834.91;2610935;36;20058;-73
2021/12/01 13:00:53;;;;;;;8.98;2.67;;;;;;;8.21;100.00;98838.06;2609259;36;20443;-73
2021/12/01 13:06:32;;;;;;;10.38;2.17;;;;;;;8.16;100.00;98844.97;2607193;36;20750;-73
2021/12/01 13:09:22;;;;;;;15.85;2.60;;;;;;;8.18;100.00;98837.59;2607797;36;20030;-73
2021/12/01 13:11:59;;;;;;;11.77;3.15;;;;;;;8.19;100.00;98839.25;2608022;36;21571;-73
2021/12/01 13:14:27;;;;;;;12.27;2.20;;;;;;;8.16;100.00;98839.59;2607751;36;20118;-72
2021/12/01 13:17:02;;;;;;;13.30;2.90;;;;;;;8.07;100.00;98846.81;2608000;36;20593;-72
2021/12/01 13:19:30;;;;;;;11.90;2.40;;;;;;;8.17;100.00;98835.91;2607619;36;20042;-72
2021/12/01 13:22:15;;;;;;;14.10;2.70;;;;;;;8.10;100.00;98846.47;2607571;36;20035;-72
2021/12/01 13:24:43;;;;;;;15.98;4.10;;;;;;;8.01;100.00;98851.00;2610434;36;20034;-72
2021/12/01 13:27:12;;;;;;;11.18;3.00;;;;;;;8.01;100.00;98856.38;2611291;36;20065;-72
2021/12/01 13:29:47;;;;;;;16.08;3.25;;;;;;;7.89;100.00;98865.72;2611271;36;20141;-73
2021/12/01 13:32:18;;;;;;;13.80;2.70;;;;;;;7.84;100.00;98878.81;2610867;36;20039;-72
2021/12/01 13:34:47;;;;;;;13.05;3.25;;;;;;;7.87;100.00;98867.75;2611308;36;20034;-72
2021/12/01 13:37:17;;;;;;;16.35;2.90;;;;;;;7.92;100.00;98867.25;2610781;36;20109;-72
2021/12/01 13:39:46;;;;;;;11.80;2.58;;;;;;;7.86;100.00;98874.09;2611864;31;20510;-72
2021/12/01 13:42:23;;;;;;;17.08;2.88;;;;;;;7.80;100.00;98872.97;2610903;36;20145;-72
2021/12/01 13:53:13;;;;;;;14.13;2.47;;;;;;;7.75;100.00;98875.28;2608770;36;20069;-72
2021/12/01 13:55:41;;;;;;;17.38;2.75;;;;;;;7.74;100.00;98883.50;2609692;36;20057;-72
2021/12/01 13:58:12;;;;;;;11.70;2.88;;;;;;;7.66;100.00;98895.03;2610477;36;20035;-72
2021/12/01 14:00:53;;;;;;;13.75;2.72;;;;;;;7.77;100.00;98883.16;2626980;36;20648;-72
2021/12/01 14:03:41;;;;;;;16.05;3.05;;;;;;;7.77;100.00;98901.91;2610890;31;20053;-72
2021/12/01 14:06:44;;;;;;;14.77;2.08;;;;;;;7.76;100.00;98898.41;2628016;36;20607;-72
2021/12/01 14:41:24;;;;;;;10.35;1.95;;;;;;;7.44;100.00;98952.72;2609383;36;20046;-73
2021/12/01 14:44:10;;;;;;;15.27;2.33;;;;;;;7.44;100.00;98960.75;2607482;47;20164;-73
2021/12/01 14:49:58;;;;;;;10.27;2.13;;;;;;;7.40;100.00;98951.38;2608522;36;20692;-73
2021/12/01 15:08:45;;;;;;;7.40;2.20;;;;;;;7.16;100.00;98980.53;2607385;36;20568;-73
2021/12/01 16:18:09;;;;;;;11.38;2.58;;;;;;;6.34;100.00;99112.81;2610928;36;20041;-73
2021/12/01 16:38:45;;;;;;;12.57;2.35;;;;;;;6.25;100.00;99160.81;2627125;31;19939;-73
2021/12/01 16:41:14;;;;;;;12.52;2.47;;;;;;;6.25;100.00;99160.81;2610758;36;20575;-72
2021/12/01 16:43:47;;;;;;;14.00;2.50;;;;;;;6.36;100.00;99167.78;2610889;36;20542;-71
2021/12/01 16:46:16;;;;;;;13.90;4.57;;;;;;;6.35;100.00;99183.97;2613074;36;20303;-71
2021/12/01 16:51:23;;;;;;;9.70;1.92;;;;;;;6.20;100.00;99188.94;2610764;36;20038;-72
2021/12/01 16:53:53;;;;;;;8.40;1.92;;;;;;;6.11;100.00;99191.53;2611945;31;20531;-72
2021/12/01 16:56:21;;;;;;;;;;;;;;;5.97;100.00;99190.19;2611399;36;20621;-71
2021/12/01 16:58:51;;;;;;;9.80;2.15;;;;;;;5.91;100.00;99180.06;2610626;36;20069;-72
2021/12/01 17:01:20;;;;;;;7.25;1.50;;;;;;;5.88;100.00;99187.56;2611074;36;20167;-71
2021/12/01 17:03:53;;;;;;;13.00;1.80;;;;;;;5.79;100.00;99200.78;2611358;36;20130;-72
2021/12/01 17:06:27;;;;;;;12.63;3.30;;;;;;;5.80;100.00;99206.97;2611854;31;20622;-71
2021/12/01 17:08:55;;;;;;;12.43;2.60;;;;;;;5.76;100.00;99214.44;2612078;36;20471;-71
2021/12/01 17:11:25;;;;;;;10.90;1.85;;;;;;;5.72;100.00;99231.72;2611236;31;20133;-72
2021/12/01 17:13:56;;;;;;;8.60;1.65;;;;;;;5.79;100.00;99240.81;2608340;36;20039;-72
2021/12/01 17:16:24;;;;;;;8.77;2.13;;;;;;;5.87;100.00;99237.41;2610979;36;20034;-71
2021/12/01 17:18:54;;;;;;;9.57;2.38;;;;;;;5.82;100.00;99245.03;2610836;36;20192;-72
2021/12/01 17:21:23;;;;;;;16.75;3.58;;;;;;;5.77;100.00;99260.63;2611254;36;20434;-72
2021/12/01 17:23:52;;;;;;;7.93;2.35;;;;;;;5.80;100.00;99257.72;2611341;36;20622;-72
2021/12/01 17:26:20;;;;;;;9.10;2.30;;;;;;;5.79;100.00;99269.38;2611425;31;20599;-70
2021/12/01 17:28:50;;;;;;;10.27;2.28;;;;;;;5.76;100.00;99256.31;2611330;36;20041;-71
2021/12/01 17:31:26;;;;;;;10.93;2.83;;;;;;;5.68;100.00;99266.84;2610253;36;20050;-71
2021/12/01 17:33:55;;;;;;;8.02;2.65;;;;;;;5.70;100.00;99272.91;2612249;36;20590;-72
2021/12/01 17:36:25;;;;;;;8.88;2.05;;;;;;;5.67;100.00;99281.19;2611471;36;20042;-72
2021/12/01 17:38:53;;;;;;;7.25;1.92;;;;;;;5.71;100.00;99280.78;2610537;36;20047;-71
2021/12/01 17:41:22;;;;;;;9.52;1.67;;;;;;;5.74;100.00;99283.16;2609982;31;20593;-71
2021/12/01 17:46:57;;;;;;;15.13;2.67;;;;;;;5.64;100.00;99302.81;2627604;36;20038;-71
2021/12/01 17:49:26;;;;;;;11.70;2.42;;;;;;;5.66;100.00;99298.19;2610312;36;20125;-71
2021/12/01 17:52:02;;;;;;;11.48;2.30;;;;;;;5.58;100.00;99310.44;2609526;31;20666;-71
2021/12/01 17:57:23;;;;;;;9.38;2.25;;;;;;;5.54;100.00;99317.03;2603675;36;20461;-70
2021/12/01 18:03:28;;;;;;;7.63;2.35;;;;;;;5.53;100.00;99326.00;2624208;36;20023;-70
2021/12/01 18:06:27;;;;;;;8.90;2.60;;;;;;;5.64;100.00;99326.84;2601560;36;20181;-70
2021/12/01 18:12:47;;;;;;;10.00;1.83;;;;;;;5.66;100.00;99335.56;2592619;36;20049;-70
2021/12/01 18:24:50;;;;;;;11.45;3.10;;;;;;;5.50;100.00;99369.00;2628033;36;20448;-71
2021/12/01 18:30:02;;;;;;;10.27;2.65;;;;;;;5.40;100.00;99368.13;2609297;36;20095;-70
2021/12/01 18:32:37;;;;;;;8.30;1.65;;;;;;;5.41;100.00;99376.00;2609870;36;20150;-71
2021/12/01 18:35:16;;;;;;;5.88;2.20;;;;;;;5.38;100.00;99372.78;2610554;36;20435;-71
2021/12/01 23:40:49;;;;;;;6.47;1.40;;;;;;;3.95;100.00;99705.59;2632768;36;20034;-72
2021/12/01 23:44:21;;;;;;;;;;;;;;;;;;;;;
